sensor_id;sensor_type;location;lat;lon;timestamp;temperature;humidity
46416;DHT22;32620;51.704;7.822;2024-03-02T00:02:24;7.80;99.90
46416;DHT22;32620;51.704;7.822;2024-03-02T00:04:50;7.70;99.90
46416;DHT22;32620;51.704;7.822;2024-03-02T00:07:16;7.60;99.90
46416;DHT22;32620;51.704;7.822;2024-03-02T00:09:42;7.70;99.90
46416;DHT22;32620;51.704;7.822;2024-03-02T00:12:08;7.60;1.00
46416;DHT22;32620;51.704;7.822;2024-03-02T00:14:35;7.50;1.00
46416;DHT22;32620;51.704;7.822;2024-03-02T00:17:01;7.50;1.00
46416;DHT22;32620;51.704;7.822;2024-03-02T00:19:26;7.50;1.00
46416;DHT22;32620;51.704;7.822;2024-03-02T00:21:52;7.50;1.00
46416;DHT22;32620;51.704;7.822;2024-03-02T00:24:21;7.40;1.00
46416;DHT22;32620;51.704;7.822;2024-03-02T00:26:47;7.40;1.00
46416;DHT22;32620;51.704;7.822;2024-03-02T00:29:15;7.30;58.90
46416;DHT22;32620;51.704;7.822;2024-03-02T00:31:43;7.30;79.00
46416;DHT22;32620;51.704;7.822;2024-03-02T00:34:09;7.30;99.90
46416;DHT22;32620;51.704;7.822;2024-03-02T00:36:36;7.20;99.90
46416;DHT22;32620;51.704;7.822;2024-03-02T00:39:02;7.10;99.90
46416;DHT22;32620;51.704;7.822;2024-03-02T00:41:30;7.20;99.90
46416;DHT22;32620;51.704;7.822;2024-03-02T00:44:13;7.20;99.90
46416;DHT22;32620;51.704;7.822;2024-03-02T00:46:40;7.40;99.90
46416;DHT22;32620;51.704;7.822;2024-03-02T00:49:27;7.40;97.80
46416;DHT22;32620;51.704;7.822;2024-03-02T00:51:54;7.40;89.20
46416;DHT22;32620;51.704;7.822;2024-03-02T00:54:21;7.50;1.00
46416;DHT22;32620;51.704;7.822;2024-03-02T00:56:49;7.50;1.00
46416;DHT22;32620;51.704;7.822;2024-03-02T00:59:15;7.50;1.00
46416;DHT22;32620;51.704;7.822;2024-03-02T01:01:40;7.40;1.00
46416;DHT22;32620;51.704;7.822;2024-03-02T01:04:07;7.40;95.10
46416;DHT22;32620;51.704;7.822;2024-03-02T01:06:32;7.40;99.90
46416;DHT22;32620;51.704;7.822;2024-03-02T01:08:59;7.30;99.90
46416;DHT22;32620;51.704;7.822;2024-03-02T01:11:24;7.30;99.90
46416;DHT22;32620;51.704;7.822;2024-03-02T01:13:50;7.30;99.90
46416;DHT22;32620;51.704;7.822;2024-03-02T01:16:17;7.30;60.80
46416;DHT22;32620;51.704;7.822;2024-03-02T01:18:42;7.30;99.90
46416;DHT22;32620;51.704;7.822;2024-03-02T01:21:08;7.20;99.90
46416;DHT22;32620;51.704;7.822;2024-03-02T01:23:34;7.20;99.90
46416;DHT22;32620;51.704;7.822;2024-03-02T01:25:59;7.20;99.90
46416;DHT22;32620;51.704;7.822;2024-03-02T01:28:25;7.20;99.90
46416;DHT22;32620;51.704;7.822;2024-03-02T01:30:50;7.20;99.90
46416;DHT22;32620;51.704;7.822;2024-03-02T01:33:17;7.20;51.20
46416;DHT22;32620;51.704;7.822;2024-03-02T01:35:43;7.20;99.90
46416;DHT22;32620;51.704;7.822;2024-03-02T01:38:09;7.30;1.00
46416;DHT22;32620;51.704;7.822;2024-03-02T01:40:35;7.30;1.00
46416;DHT22;32620;51.704;7.822;2024-03-02T01:43:01;7.20;38.00
46416;DHT22;32620;51.704;7.822;2024-03-02T01:45:28;7.20;1.00
46416;DHT22;32620;51.704;7.822;2024-03-02T01:47:53;7.20;1.00
46416;DHT22;32620;51.704;7.822;2024-03-02T01:50:28;7.20;1.00
46416;DHT22;32620;51.704;7.822;2024-03-02T01:52:54;7.20;1.00
46416;DHT22;32620;51.704;7.822;2024-03-02T01:55:20;7.20;1.00
46416;DHT22;32620;51.704;7.822;2024-03-02T01:57:46;7.10;1.00
46416;DHT22;32620;51.704;7.822;2024-03-02T02:00:13;7.10;49.00
46416;DHT22;32620;51.704;7.822;2024-03-02T02:02:39;7.20;1.00
46416;DHT22;32620;51.704;7.822;2024-03-02T02:05:05;7.20;9.90
46416;DHT22;32620;51.704;7.822;2024-03-02T02:07:30;7.20;1.00
46416;DHT22;32620;51.704;7.822;2024-03-02T02:09:57;7.20;1.00
46416;DHT22;32620;51.704;7.822;2024-03-02T02:12:22;7.10;1.00
46416;DHT22;32620;51.704;7.822;2024-03-02T02:14:48;7.10;1.00
46416;DHT22;32620;51.704;7.822;2024-03-02T02:17:15;7.00;1.00
46416;DHT22;32620;51.704;7.822;2024-03-02T02:19:41;7.10;5.10
46416;DHT22;32620;51.704;7.822;2024-03-02T02:22:08;7.10;1.00
46416;DHT22;32620;51.704;7.822;2024-03-02T02:24:33;7.10;1.00
46416;DHT22;32620;51.704;7.822;2024-03-02T02:26:59;7.10;1.00
46416;DHT22;32620;51.704;7.822;2024-03-02T02:29:24;7.20;1.00
46416;DHT22;32620;51.704;7.822;2024-03-02T02:31:50;7.10;1.00
46416;DHT22;32620;51.704;7.822;2024-03-02T02:34:16;7.10;1.00
46416;DHT22;32620;51.704;7.822;2024-03-02T02:36:41;7.00;1.00
46416;DHT22;32620;51.704;7.822;2024-03-02T02:39:11;7.10;1.00
46416;DHT22;32620;51.704;7.822;2024-03-02T02:41:38;7.00;1.00
46416;DHT22;32620;51.704;7.822;2024-03-02T02:44:04;7.00;17.90
46416;DHT22;32620;51.704;7.822;2024-03-02T02:46:30;7.00;42.30
46416;DHT22;32620;51.704;7.822;2024-03-02T02:48:55;6.90;99.90
46416;DHT22;32620;51.704;7.822;2024-03-02T02:51:21;6.90;99.90
46416;DHT22;32620;51.704;7.822;2024-03-02T02:53:47;6.80;99.90
46416;DHT22;32620;51.704;7.822;2024-03-02T02:56:12;6.90;99.90
46416;DHT22;32620;51.704;7.822;2024-03-02T02:58:39;6.90;99.90
46416;DHT22;32620;51.704;7.822;2024-03-02T03:01:05;6.90;99.90
46416;DHT22;32620;51.704;7.822;2024-03-02T03:03:30;6.90;99.90
46416;DHT22;32620;51.704;7.822;2024-03-02T03:05:56;6.80;99.90
46416;DHT22;32620;51.704;7.822;2024-03-02T03:08:21;6.80;99.90
46416;DHT22;32620;51.704;7.822;2024-03-02T03:10:48;6.70;99.90
46416;DHT22;32620;51.704;7.822;2024-03-02T03:13:15;6.70;1.00
46416;DHT22;32620;51.704;7.822;2024-03-02T03:15:40;6.70;1.00
46416;DHT22;32620;51.704;7.822;2024-03-02T03:18:06;6.70;1.00
46416;DHT22;32620;51.704;7.822;2024-03-02T03:20:33;6.70;1.00
46416;DHT22;32620;51.704;7.822;2024-03-02T03:22:59;6.60;49.60
46416;DHT22;32620;51.704;7.822;2024-03-02T03:25:25;6.50;99.90
46416;DHT22;32620;51.704;7.822;2024-03-02T03:27:51;6.50;1.00
46416;DHT22;32620;51.704;7.822;2024-03-02T03:30:18;6.50;1.00
46416;DHT22;32620;51.704;7.822;2024-03-02T03:32:44;6.50;1.00
46416;DHT22;32620;51.704;7.822;2024-03-02T03:35:09;6.50;1.00
46416;DHT22;32620;51.704;7.822;2024-03-02T03:37:35;6.50;1.00
46416;DHT22;32620;51.704;7.822;2024-03-02T03:40:02;6.40;31.60
46416;DHT22;32620;51.704;7.822;2024-03-02T03:42:28;6.40;99.90
46416;DHT22;32620;51.704;7.822;2024-03-02T03:44:54;6.30;99.90
46416;DHT22;32620;51.704;7.822;2024-03-02T03:47:19;6.20;99.90
46416;DHT22;32620;51.704;7.822;2024-03-02T03:49:45;6.20;99.90
46416;DHT22;32620;51.704;7.822;2024-03-02T03:52:11;6.10;1.00
46416;DHT22;32620;51.704;7.822;2024-03-02T03:54:36;6.10;99.90
46416;DHT22;32620;51.704;7.822;2024-03-02T03:57:04;6.00;99.90
46416;DHT22;32620;51.704;7.822;2024-03-02T03:59:29;6.10;99.90
46416;DHT22;32620;51.704;7.822;2024-03-02T04:01:55;6.10;99.90
46416;DHT22;32620;51.704;7.822;2024-03-02T04:04:21;5.90;99.90
46416;DHT22;32620;51.704;7.822;2024-03-02T04:06:46;5.90;29.90
46416;DHT22;32620;51.704;7.822;2024-03-02T04:09:12;5.80;99.90
46416;DHT22;32620;51.704;7.822;2024-03-02T04:11:37;5.80;1.00
46416;DHT22;32620;51.704;7.822;2024-03-02T04:14:03;5.90;99.90
46416;DHT22;32620;51.704;7.822;2024-03-02T04:16:29;5.90;99.90
46416;DHT22;32620;51.704;7.822;2024-03-02T04:18:54;6.00;99.90
46416;DHT22;32620;51.704;7.822;2024-03-02T04:21:20;6.00;1.00
46416;DHT22;32620;51.704;7.822;2024-03-02T04:23:45;6.00;99.90
46416;DHT22;32620;51.704;7.822;2024-03-02T04:26:11;6.00;99.90
46416;DHT22;32620;51.704;7.822;2024-03-02T04:28:36;6.00;3.90
46416;DHT22;32620;51.704;7.822;2024-03-02T04:31:02;6.00;1.00
46416;DHT22;32620;51.704;7.822;2024-03-02T04:33:28;6.10;99.90
46416;DHT22;32620;51.704;7.822;2024-03-02T04:35:53;6.00;99.90
46416;DHT22;32620;51.704;7.822;2024-03-02T04:38:19;6.10;1.00
46416;DHT22;32620;51.704;7.822;2024-03-02T04:40:44;6.10;1.00
46416;DHT22;32620;51.704;7.822;2024-03-02T04:43:10;6.00;99.90
46416;DHT22;32620;51.704;7.822;2024-03-02T04:45:38;6.10;1.00
46416;DHT22;32620;51.704;7.822;2024-03-02T04:48:03;6.10;99.90
46416;DHT22;32620;51.704;7.822;2024-03-02T04:50:29;6.10;6.10
46416;DHT22;32620;51.704;7.822;2024-03-02T04:52:55;6.10;1.00
46416;DHT22;32620;51.704;7.822;2024-03-02T04:55:20;6.20;99.90
46416;DHT22;32620;51.704;7.822;2024-03-02T04:58:05;6.20;99.90
46416;DHT22;32620;51.704;7.822;2024-03-02T05:00:32;6.20;1.00
46416;DHT22;32620;51.704;7.822;2024-03-02T05:02:58;6.20;1.00
46416;DHT22;32620;51.704;7.822;2024-03-02T05:05:23;6.20;99.90
46416;DHT22;32620;51.704;7.822;2024-03-02T05:07:49;6.20;1.00
46416;DHT22;32620;51.704;7.822;2024-03-02T05:10:14;6.10;1.00
46416;DHT22;32620;51.704;7.822;2024-03-02T05:12:40;6.10;99.90
46416;DHT22;32620;51.704;7.822;2024-03-02T05:15:20;6.10;99.90
46416;DHT22;32620;51.704;7.822;2024-03-02T05:17:47;6.10;99.90
46416;DHT22;32620;51.704;7.822;2024-03-02T05:20:12;6.00;99.90
46416;DHT22;32620;51.704;7.822;2024-03-02T05:22:38;6.00;99.90
46416;DHT22;32620;51.704;7.822;2024-03-02T05:25:05;6.20;1.00
46416;DHT22;32620;51.704;7.822;2024-03-02T05:27:31;6.20;98.90
46416;DHT22;32620;51.704;7.822;2024-03-02T05:29:58;6.20;99.90
46416;DHT22;32620;51.704;7.822;2024-03-02T05:32:24;6.20;99.90
46416;DHT22;32620;51.704;7.822;2024-03-02T05:34:49;6.30;15.20
46416;DHT22;32620;51.704;7.822;2024-03-02T05:37:16;6.30;99.90
46416;DHT22;32620;51.704;7.822;2024-03-02T05:39:41;6.30;99.90
46416;DHT22;32620;51.704;7.822;2024-03-02T05:42:08;6.30;99.90
46416;DHT22;32620;51.704;7.822;2024-03-02T05:44:35;6.30;99.90
46416;DHT22;32620;51.704;7.822;2024-03-02T05:47:00;6.30;1.00
46416;DHT22;32620;51.704;7.822;2024-03-02T05:49:26;6.30;1.00
46416;DHT22;32620;51.704;7.822;2024-03-02T05:51:51;6.30;99.90
46416;DHT22;32620;51.704;7.822;2024-03-02T05:54:17;6.30;1.00
46416;DHT22;32620;51.704;7.822;2024-03-02T05:56:42;6.30;1.00
46416;DHT22;32620;51.704;7.822;2024-03-02T05:59:08;6.30;99.90
46416;DHT22;32620;51.704;7.822;2024-03-02T06:01:43;6.40;99.90
46416;DHT22;32620;51.704;7.822;2024-03-02T06:04:09;6.40;1.00
46416;DHT22;32620;51.704;7.822;2024-03-02T06:06:36;6.40;99.90
46416;DHT22;32620;51.704;7.822;2024-03-02T06:09:02;6.40;99.90
46416;DHT22;32620;51.704;7.822;2024-03-02T06:11:38;6.40;99.90
46416;DHT22;32620;51.704;7.822;2024-03-02T06:14:05;6.40;99.90
46416;DHT22;32620;51.704;7.822;2024-03-02T06:16:32;6.40;99.90
46416;DHT22;32620;51.704;7.822;2024-03-02T06:18:57;6.40;33.00
46416;DHT22;32620;51.704;7.822;2024-03-02T06:21:24;6.40;1.00
46416;DHT22;32620;51.704;7.822;2024-03-02T06:23:49;6.50;99.90
46416;DHT22;32620;51.704;7.822;2024-03-02T06:26:15;6.50;1.00
46416;DHT22;32620;51.704;7.822;2024-03-02T06:28:41;6.50;1.00
46416;DHT22;32620;51.704;7.822;2024-03-02T06:31:06;6.50;1.00
46416;DHT22;32620;51.704;7.822;2024-03-02T06:33:32;6.50;1.00
46416;DHT22;32620;51.704;7.822;2024-03-02T06:35:58;6.60;99.90
46416;DHT22;32620;51.704;7.822;2024-03-02T06:38:23;6.70;1.00
46416;DHT22;32620;51.704;7.822;2024-03-02T06:40:49;6.70;99.90
46416;DHT22;32620;51.704;7.822;2024-03-02T06:43:14;6.70;99.90
46416;DHT22;32620;51.704;7.822;2024-03-02T06:45:40;6.80;99.90
46416;DHT22;32620;51.704;7.822;2024-03-02T06:48:06;6.80;99.90
46416;DHT22;32620;51.704;7.822;2024-03-02T06:50:32;6.90;1.00
46416;DHT22;32620;51.704;7.822;2024-03-02T06:52:57;6.90;99.90
46416;DHT22;32620;51.704;7.822;2024-03-02T06:55:23;7.00;99.90
46416;DHT22;32620;51.704;7.822;2024-03-02T06:57:50;7.10;99.90
46416;DHT22;32620;51.704;7.822;2024-03-02T07:00:16;7.20;1.00
46416;DHT22;32620;51.704;7.822;2024-03-02T07:02:43;7.30;1.00
46416;DHT22;32620;51.704;7.822;2024-03-02T07:05:10;7.40;99.90
46416;DHT22;32620;51.704;7.822;2024-03-02T07:07:35;7.50;99.90
46416;DHT22;32620;51.704;7.822;2024-03-02T07:10:02;8.10;99.90
46416;DHT22;32620;51.704;7.822;2024-03-02T07:12:28;9.20;1.00
46416;DHT22;32620;51.704;7.822;2024-03-02T07:14:53;10.70;99.90
46416;DHT22;32620;51.704;7.822;2024-03-02T07:17:36;12.50;1.00
46416;DHT22;32620;51.704;7.822;2024-03-02T07:20:02;13.40;99.90
46416;DHT22;32620;51.704;7.822;2024-03-02T07:22:29;13.70;99.90
46416;DHT22;32620;51.704;7.822;2024-03-02T07:24:55;14.00;99.90
46416;DHT22;32620;51.704;7.822;2024-03-02T07:27:21;13.80;99.90
46416;DHT22;32620;51.704;7.822;2024-03-02T07:29:46;14.70;99.90
46416;DHT22;32620;51.704;7.822;2024-03-02T07:32:12;14.80;99.90
46416;DHT22;32620;51.704;7.822;2024-03-02T07:34:37;14.70;99.90
46416;DHT22;32620;51.704;7.822;2024-03-02T07:37:03;15.60;99.90
46416;DHT22;32620;51.704;7.822;2024-03-02T07:39:29;14.80;93.00
46416;DHT22;32620;51.704;7.822;2024-03-02T07:41:55;14.20;46.90
46416;DHT22;32620;51.704;7.822;2024-03-02T07:44:21;13.40;30.40
46416;DHT22;32620;51.704;7.822;2024-03-02T07:46:47;13.00;40.80
46416;DHT22;32620;51.704;7.822;2024-03-02T07:49:15;13.60;78.60
46416;DHT22;32620;51.704;7.822;2024-03-02T07:51:40;13.50;40.70
46416;DHT22;32620;51.704;7.822;2024-03-02T07:54:06;13.50;61.90
46416;DHT22;32620;51.704;7.822;2024-03-02T07:56:31;13.80;42.00
46416;DHT22;32620;51.704;7.822;2024-03-02T07:58:57;14.90;47.50
46416;DHT22;32620;51.704;7.822;2024-03-02T08:01:27;15.50;29.20
46416;DHT22;32620;51.704;7.822;2024-03-02T08:03:53;15.60;24.90
46416;DHT22;32620;51.704;7.822;2024-03-02T08:06:18;15.70;1.00
46416;DHT22;32620;51.704;7.822;2024-03-02T08:08:47;15.80;1.00
46416;DHT22;32620;51.704;7.822;2024-03-02T08:11:12;15.40;23.70
46416;DHT22;32620;51.704;7.822;2024-03-02T08:13:38;15.70;4.30
46416;DHT22;32620;51.704;7.822;2024-03-02T08:16:04;14.90;1.00
46416;DHT22;32620;51.704;7.822;2024-03-02T08:18:32;14.40;1.00
46416;DHT22;32620;51.704;7.822;2024-03-02T08:20:58;13.70;1.00
46416;DHT22;32620;51.704;7.822;2024-03-02T08:23:23;12.80;4.40
46416;DHT22;32620;51.704;7.822;2024-03-02T08:25:49;12.50;19.80
46416;DHT22;32620;51.704;7.822;2024-03-02T08:28:14;12.70;45.80
46416;DHT22;32620;51.704;7.822;2024-03-02T08:30:40;13.00;42.40
46416;DHT22;32620;51.704;7.822;2024-03-02T08:33:05;14.00;65.70
46416;DHT22;32620;51.704;7.822;2024-03-02T08:35:31;14.20;47.50
46416;DHT22;32620;51.704;7.822;2024-03-02T08:38:01;14.20;51.20
46416;DHT22;32620;51.704;7.822;2024-03-02T08:40:27;15.10;80.70
46416;DHT22;32620;51.704;7.822;2024-03-02T08:42:52;15.20;79.50
46416;DHT22;32620;51.704;7.822;2024-03-02T08:45:18;15.70;41.00
46416;DHT22;32620;51.704;7.822;2024-03-02T08:47:45;16.10;22.40
46416;DHT22;32620;51.704;7.822;2024-03-02T08:50:11;15.80;13.00
46416;DHT22;32620;51.704;7.822;2024-03-02T08:52:37;15.90;19.10
46416;DHT22;32620;51.704;7.822;2024-03-02T08:55:02;16.10;8.50
46416;DHT22;32620;51.704;7.822;2024-03-02T08:57:28;16.20;16.40
46416;DHT22;32620;51.704;7.822;2024-03-02T08:59:54;16.30;5.90
46416;DHT22;32620;51.704;7.822;2024-03-02T09:02:19;16.50;11.20
46416;DHT22;32620;51.704;7.822;2024-03-02T09:04:45;16.80;16.70
46416;DHT22;32620;51.704;7.822;2024-03-02T09:07:10;16.80;16.70
46416;DHT22;32620;51.704;7.822;2024-03-02T09:09:36;16.10;1.00
46416;DHT22;32620;51.704;7.822;2024-03-02T09:12:04;15.80;1.00
46416;DHT22;32620;51.704;7.822;2024-03-02T09:14:30;15.80;1.00
46416;DHT22;32620;51.704;7.822;2024-03-02T09:16:55;16.10;1.00
46416;DHT22;32620;51.704;7.822;2024-03-02T09:19:21;16.10;1.00
46416;DHT22;32620;51.704;7.822;2024-03-02T09:21:46;16.60;1.00
46416;DHT22;32620;51.704;7.822;2024-03-02T09:24:12;16.30;1.00
46416;DHT22;32620;51.704;7.822;2024-03-02T09:26:38;16.90;1.00
46416;DHT22;32620;51.704;7.822;2024-03-02T09:29:03;16.70;99.90
46416;DHT22;32620;51.704;7.822;2024-03-02T09:31:29;16.80;1.00
46416;DHT22;32620;51.704;7.822;2024-03-02T09:33:55;17.20;1.00
46416;DHT22;32620;51.704;7.822;2024-03-02T09:36:21;16.80;1.00
46416;DHT22;32620;51.704;7.822;2024-03-02T09:38:47;16.50;1.00
46416;DHT22;32620;51.704;7.822;2024-03-02T09:41:14;16.40;1.00
46416;DHT22;32620;51.704;7.822;2024-03-02T09:43:40;16.60;1.00
46416;DHT22;32620;51.704;7.822;2024-03-02T09:46:09;16.80;1.00
46416;DHT22;32620;51.704;7.822;2024-03-02T09:48:35;16.90;1.00
46416;DHT22;32620;51.704;7.822;2024-03-02T09:51:00;16.90;1.00
46416;DHT22;32620;51.704;7.822;2024-03-02T09:53:31;16.80;1.00
46416;DHT22;32620;51.704;7.822;2024-03-02T09:55:58;16.80;1.00
46416;DHT22;32620;51.704;7.822;2024-03-02T09:58:24;17.30;1.00
46416;DHT22;32620;51.704;7.822;2024-03-02T10:00:49;16.20;1.00
46416;DHT22;32620;51.704;7.822;2024-03-02T10:03:15;16.10;1.00
46416;DHT22;32620;51.704;7.822;2024-03-02T10:05:40;15.70;1.00
46416;DHT22;32620;51.704;7.822;2024-03-02T10:08:06;16.00;1.00
46416;DHT22;32620;51.704;7.822;2024-03-02T10:10:39;15.90;1.00
46416;DHT22;32620;51.704;7.822;2024-03-02T10:13:07;16.20;1.00
46416;DHT22;32620;51.704;7.822;2024-03-02T10:15:34;16.60;1.00
46416;DHT22;32620;51.704;7.822;2024-03-02T10:17:59;16.40;1.00
46416;DHT22;32620;51.704;7.822;2024-03-02T10:20:26;16.80;1.00
46416;DHT22;32620;51.704;7.822;2024-03-02T10:22:54;16.90;1.00
46416;DHT22;32620;51.704;7.822;2024-03-02T10:25:34;17.00;1.00
46416;DHT22;32620;51.704;7.822;2024-03-02T10:28:00;17.20;1.00
46416;DHT22;32620;51.704;7.822;2024-03-02T10:30:27;16.90;1.00
46416;DHT22;32620;51.704;7.822;2024-03-02T10:32:54;17.00;1.00
46416;DHT22;32620;51.704;7.822;2024-03-02T10:35:21;17.00;1.00
46416;DHT22;32620;51.704;7.822;2024-03-02T10:37:48;16.90;1.00
46416;DHT22;32620;51.704;7.822;2024-03-02T10:40:14;16.60;1.00
46416;DHT22;32620;51.704;7.822;2024-03-02T10:42:41;16.20;1.00
46416;DHT22;32620;51.704;7.822;2024-03-02T10:45:09;16.10;1.00
46416;DHT22;32620;51.704;7.822;2024-03-02T10:47:37;16.30;1.00
46416;DHT22;32620;51.704;7.822;2024-03-02T10:50:04;16.20;1.00
46416;DHT22;32620;51.704;7.822;2024-03-02T10:52:34;16.20;1.00
46416;DHT22;32620;51.704;7.822;2024-03-02T10:55:00;16.40;1.00
46416;DHT22;32620;51.704;7.822;2024-03-02T10:57:27;16.50;1.00
46416;DHT22;32620;51.704;7.822;2024-03-02T11:00:02;16.20;1.00
46416;DHT22;32620;51.704;7.822;2024-03-02T11:02:30;16.20;1.00
46416;DHT22;32620;51.704;7.822;2024-03-02T11:04:56;15.80;1.00
46416;DHT22;32620;51.704;7.822;2024-03-02T11:07:25;16.00;1.00
46416;DHT22;32620;51.704;7.822;2024-03-02T11:09:56;16.20;1.00
46416;DHT22;32620;51.704;7.822;2024-03-02T11:12:29;16.20;1.00
46416;DHT22;32620;51.704;7.822;2024-03-02T11:14:55;16.20;1.00
46416;DHT22;32620;51.704;7.822;2024-03-02T11:17:21;16.30;1.00
46416;DHT22;32620;51.704;7.822;2024-03-02T11:19:48;15.90;1.00
46416;DHT22;32620;51.704;7.822;2024-03-02T11:22:14;16.20;1.00
46416;DHT22;32620;51.704;7.822;2024-03-02T11:24:48;16.30;1.00
46416;DHT22;32620;51.704;7.822;2024-03-02T11:27:14;15.80;1.00
46416;DHT22;32620;51.704;7.822;2024-03-02T11:32:21;15.80;1.00
46416;DHT22;32620;51.704;7.822;2024-03-02T11:34:49;16.00;1.00
46416;DHT22;32620;51.704;7.822;2024-03-02T11:37:16;16.00;1.00
46416;DHT22;32620;51.704;7.822;2024-03-02T11:39:44;16.00;1.00
46416;DHT22;32620;51.704;7.822;2024-03-02T11:42:11;16.00;1.00
46416;DHT22;32620;51.704;7.822;2024-03-02T11:44:39;16.10;1.00
46416;DHT22;32620;51.704;7.822;2024-03-02T11:47:07;16.00;1.00
46416;DHT22;32620;51.704;7.822;2024-03-02T11:49:51;15.60;1.00
46416;DHT22;32620;51.704;7.822;2024-03-02T11:52:18;15.60;1.00
46416;DHT22;32620;51.704;7.822;2024-03-02T11:54:45;15.70;1.00
46416;DHT22;32620;51.704;7.822;2024-03-02T11:57:15;15.60;1.00
46416;DHT22;32620;51.704;7.822;2024-03-02T11:59:41;15.80;1.00
46416;DHT22;32620;51.704;7.822;2024-03-02T12:02:07;15.90;1.00
46416;DHT22;32620;51.704;7.822;2024-03-02T12:04:38;15.60;1.00
46416;DHT22;32620;51.704;7.822;2024-03-02T12:07:03;15.40;1.00
46416;DHT22;32620;51.704;7.822;2024-03-02T12:09:29;15.20;1.00
46416;DHT22;32620;51.704;7.822;2024-03-02T12:12:02;15.20;1.00
46416;DHT22;32620;51.704;7.822;2024-03-02T12:14:29;15.50;1.00
46416;DHT22;32620;51.704;7.822;2024-03-02T12:16:55;15.70;1.00
46416;DHT22;32620;51.704;7.822;2024-03-02T12:19:21;15.70;1.00
46416;DHT22;32620;51.704;7.822;2024-03-02T12:21:46;15.60;1.00
46416;DHT22;32620;51.704;7.822;2024-03-02T12:24:12;15.50;1.00
46416;DHT22;32620;51.704;7.822;2024-03-02T12:26:38;15.50;1.00
46416;DHT22;32620;51.704;7.822;2024-03-02T12:29:04;15.70;1.00
46416;DHT22;32620;51.704;7.822;2024-03-02T12:31:29;15.70;1.00
46416;DHT22;32620;51.704;7.822;2024-03-02T12:33:55;16.00;1.00
46416;DHT22;32620;51.704;7.822;2024-03-02T12:36:22;16.00;1.00
46416;DHT22;32620;51.704;7.822;2024-03-02T12:38:47;15.90;1.00
46416;DHT22;32620;51.704;7.822;2024-03-02T12:41:15;16.10;1.00
46416;DHT22;32620;51.704;7.822;2024-03-02T12:43:41;15.90;1.00
46416;DHT22;32620;51.704;7.822;2024-03-02T12:46:07;15.70;1.00
46416;DHT22;32620;51.704;7.822;2024-03-02T12:48:32;15.80;1.00
46416;DHT22;32620;51.704;7.822;2024-03-02T12:50:58;15.90;1.00
46416;DHT22;32620;51.704;7.822;2024-03-02T12:53:24;16.10;1.00
46416;DHT22;32620;51.704;7.822;2024-03-02T12:55:50;16.10;1.00
46416;DHT22;32620;51.704;7.822;2024-03-02T12:58:19;16.00;1.00
46416;DHT22;32620;51.704;7.822;2024-03-02T13:00:44;16.00;1.00
46416;DHT22;32620;51.704;7.822;2024-03-02T13:03:11;15.90;1.00
46416;DHT22;32620;51.704;7.822;2024-03-02T13:05:37;15.90;1.00
46416;DHT22;32620;51.704;7.822;2024-03-02T13:08:02;15.80;1.00
46416;DHT22;32620;51.704;7.822;2024-03-02T13:10:30;15.80;1.00
46416;DHT22;32620;51.704;7.822;2024-03-02T13:12:56;15.90;1.00
46416;DHT22;32620;51.704;7.822;2024-03-02T13:15:22;16.30;1.00
46416;DHT22;32620;51.704;7.822;2024-03-02T13:17:48;16.30;1.00
46416;DHT22;32620;51.704;7.822;2024-03-02T13:20:14;16.10;1.00
46416;DHT22;32620;51.704;7.822;2024-03-02T13:22:40;15.90;1.00
46416;DHT22;32620;51.704;7.822;2024-03-02T13:25:06;15.90;1.00
46416;DHT22;32620;51.704;7.822;2024-03-02T13:27:33;15.90;1.00
46416;DHT22;32620;51.704;7.822;2024-03-02T13:29:59;16.00;1.00
46416;DHT22;32620;51.704;7.822;2024-03-02T13:32:24;15.70;1.00
46416;DHT22;32620;51.704;7.822;2024-03-02T13:34:51;15.40;1.00
46416;DHT22;32620;51.704;7.822;2024-03-02T13:37:17;15.10;1.00
46416;DHT22;32620;51.704;7.822;2024-03-02T13:39:42;14.90;1.00
46416;DHT22;32620;51.704;7.822;2024-03-02T13:42:09;14.80;1.00
46416;DHT22;32620;51.704;7.822;2024-03-02T13:44:36;14.80;1.00
46416;DHT22;32620;51.704;7.822;2024-03-02T13:47:02;14.80;1.00
46416;DHT22;32620;51.704;7.822;2024-03-02T13:49:28;14.90;1.00
46416;DHT22;32620;51.704;7.822;2024-03-02T13:51:59;14.90;1.00
46416;DHT22;32620;51.704;7.822;2024-03-02T13:54:26;15.00;1.00
46416;DHT22;32620;51.704;7.822;2024-03-02T13:56:52;14.90;1.00
46416;DHT22;32620;51.704;7.822;2024-03-02T13:59:18;15.00;1.00
46416;DHT22;32620;51.704;7.822;2024-03-02T14:01:44;14.90;1.00
46416;DHT22;32620;51.704;7.822;2024-03-02T14:04:09;15.00;1.00
46416;DHT22;32620;51.704;7.822;2024-03-02T14:06:35;15.10;1.00
46416;DHT22;32620;51.704;7.822;2024-03-02T14:09:01;15.10;1.00
46416;DHT22;32620;51.704;7.822;2024-03-02T14:11:26;15.10;1.00
46416;DHT22;32620;51.704;7.822;2024-03-02T14:13:52;14.90;1.00
46416;DHT22;32620;51.704;7.822;2024-03-02T14:16:20;14.80;1.00
46416;DHT22;32620;51.704;7.822;2024-03-02T14:18:46;14.90;1.00
46416;DHT22;32620;51.704;7.822;2024-03-02T14:21:11;14.90;1.00
46416;DHT22;32620;51.704;7.822;2024-03-02T14:23:37;14.90;1.00
46416;DHT22;32620;51.704;7.822;2024-03-02T14:26:03;14.90;1.00
46416;DHT22;32620;51.704;7.822;2024-03-02T14:28:28;14.90;1.00
46416;DHT22;32620;51.704;7.822;2024-03-02T14:30:54;14.80;1.00
46416;DHT22;32620;51.704;7.822;2024-03-02T14:33:20;14.90;1.00
46416;DHT22;32620;51.704;7.822;2024-03-02T14:35:46;14.90;1.00
46416;DHT22;32620;51.704;7.822;2024-03-02T14:38:12;14.90;1.00
46416;DHT22;32620;51.704;7.822;2024-03-02T14:40:38;14.80;1.00
46416;DHT22;32620;51.704;7.822;2024-03-02T14:43:04;14.80;1.00
46416;DHT22;32620;51.704;7.822;2024-03-02T14:45:29;14.70;1.00
46416;DHT22;32620;51.704;7.822;2024-03-02T14:47:55;14.70;1.00
46416;DHT22;32620;51.704;7.822;2024-03-02T14:50:21;14.70;1.00
46416;DHT22;32620;51.704;7.822;2024-03-02T14:52:47;14.50;1.00
46416;DHT22;32620;51.704;7.822;2024-03-02T14:55:12;14.50;1.00
46416;DHT22;32620;51.704;7.822;2024-03-02T14:57:38;14.40;1.00
46416;DHT22;32620;51.704;7.822;2024-03-02T15:00:04;14.40;1.00
46416;DHT22;32620;51.704;7.822;2024-03-02T15:02:33;14.40;1.00
46416;DHT22;32620;51.704;7.822;2024-03-02T15:05:00;14.40;1.00
46416;DHT22;32620;51.704;7.822;2024-03-02T15:07:25;14.40;1.00
46416;DHT22;32620;51.704;7.822;2024-03-02T15:09:51;14.40;1.00
46416;DHT22;32620;51.704;7.822;2024-03-02T15:12:17;14.40;1.00
46416;DHT22;32620;51.704;7.822;2024-03-02T15:14:43;14.40;1.00
46416;DHT22;32620;51.704;7.822;2024-03-02T15:17:13;14.40;1.00
46416;DHT22;32620;51.704;7.822;2024-03-02T15:19:43;14.40;1.00
46416;DHT22;32620;51.704;7.822;2024-03-02T15:22:09;14.40;1.00
46416;DHT22;32620;51.704;7.822;2024-03-02T15:24:35;14.40;1.00
46416;DHT22;32620;51.704;7.822;2024-03-02T15:27:01;14.30;1.00
46416;DHT22;32620;51.704;7.822;2024-03-02T15:29:31;14.30;1.00
46416;DHT22;32620;51.704;7.822;2024-03-02T15:31:57;14.20;1.00
46416;DHT22;32620;51.704;7.822;2024-03-02T15:34:23;14.20;1.00
46416;DHT22;32620;51.704;7.822;2024-03-02T15:36:49;14.20;1.00
46416;DHT22;32620;51.704;7.822;2024-03-02T15:39:15;14.20;1.00
46416;DHT22;32620;51.704;7.822;2024-03-02T15:41:40;14.20;1.00
46416;DHT22;32620;51.704;7.822;2024-03-02T15:44:06;14.30;1.00
46416;DHT22;32620;51.704;7.822;2024-03-02T15:46:33;14.40;1.00